createdAt,value
2018-05-08T00:00:56.781Z,910.90
2018-05-08T00:01:56.929Z,900.80
2018-05-08T00:02:56.867Z,935.00
2018-05-08T00:03:56.913Z,913.00
2018-05-08T00:04:56.970Z,966.00
2018-05-08T00:05:57.008Z,999.90
2018-05-08T00:06:57.156Z,981.60
2018-05-08T00:07:57.087Z,999.90
2018-05-08T00:08:57.201Z,988.00
2018-05-08T00:09:57.197Z,872.60
2018-05-08T00:10:57.235Z,912.10
2018-05-08T00:11:57.369Z,873.00
2018-05-08T00:12:57.321Z,991.30
2018-05-08T00:13:57.372Z,957.20
2018-05-08T00:14:57.417Z,999.90
2018-05-08T00:15:57.463Z,930.90
2018-05-08T00:16:57.607Z,903.30
2018-05-08T00:17:57.540Z,877.10
2018-05-08T00:18:57.600Z,965.80
2018-05-08T00:19:57.639Z,925.10
2018-05-08T00:20:57.676Z,877.00
2018-05-08T00:21:57.823Z,924.00
2018-05-08T00:22:57.781Z,985.40
2018-05-08T00:23:57.835Z,898.80
2018-05-08T00:24:57.877Z,849.30
2018-05-08T00:25:57.924Z,999.90
2018-05-08T00:26:58.063Z,928.40
2018-05-08T00:27:58.097Z,887.80
2018-05-08T00:28:58.056Z,815.60
2018-05-08T00:29:58.102Z,920.30
2018-05-08T00:30:58.137Z,999.90
2018-05-08T00:31:58.178Z,909.70
2018-05-08T00:32:58.325Z,908.80
2018-05-08T00:33:58.276Z,834.50
2018-05-08T00:34:58.391Z,902.50
2018-05-08T00:35:58.360Z,874.10
2018-05-08T00:36:58.417Z,999.90
2018-05-08T00:37:58.567Z,941.70
2018-05-08T00:38:58.608Z,789.90
2018-05-08T00:39:58.543Z,865.10
2018-05-08T00:40:58.608Z,747.50
2018-05-08T00:41:58.652Z,845.80
2018-05-08T00:42:58.682Z,892.50
2018-05-08T00:43:58.827Z,966.00
2018-05-08T00:44:58.789Z,922.00
2018-05-08T00:45:58.828Z,922.10
2018-05-08T00:46:58.863Z,927.20
2018-05-08T00:47:58.920Z,991.80
2018-05-08T00:48:59.054Z,968.30
2018-05-08T00:49:59.013Z,820.90
2018-05-08T00:50:59.056Z,787.00
2018-05-08T00:51:59.109Z,977.40
2018-05-08T00:52:59.146Z,891.00
2018-05-08T00:53:59.280Z,894.50
2018-05-08T00:54:59.241Z,935.20
2018-05-08T00:55:59.298Z,850.20
2018-05-08T00:56:59.316Z,915.40
2018-05-08T00:57:59.372Z,881.40
2018-05-08T00:58:59.529Z,992.20
2018-05-08T00:59:59.462Z,899.00
2018-05-08T01:00:59.515Z,987.30
2018-05-08T01:01:59.542Z,834.80
2018-05-08T01:02:59.597Z,825.90
2018-05-08T01:03:59.744Z,891.80
2018-05-08T01:04:59.733Z,929.60
2018-05-08T01:05:59.732Z,979.70
2018-05-08T01:06:59.770Z,987.00
2018-05-08T01:07:59.823Z,866.70
2018-05-08T01:08:59.969Z,884.70
2018-05-08T01:09:59.919Z,959.40
2018-05-08T01:10:59.961Z,989.00
2018-05-08T01:12:00.012Z,999.90
2018-05-08T01:13:00.058Z,844.40
2018-05-08T01:14:00.203Z,967.40
2018-05-08T01:15:00.236Z,867.40
2018-05-08T01:16:00.193Z,904.30
2018-05-08T01:17:00.232Z,999.90
2018-05-08T01:18:00.292Z,950.60
2018-05-08T01:19:00.318Z,939.80
2018-05-08T01:20:00.470Z,869.50
2018-05-08T01:21:00.420Z,937.20
2018-05-08T01:22:00.467Z,899.60
2018-05-08T01:23:00.507Z,825.30
2018-05-08T01:24:00.556Z,945.80
2018-05-08T01:25:00.702Z,921.90
2018-05-08T01:26:00.659Z,882.40
2018-05-08T01:27:00.695Z,925.90
2018-05-08T01:28:00.739Z,886.30
2018-05-08T01:29:00.779Z,858.40
2018-05-08T01:30:00.931Z,927.70
2018-05-08T01:31:00.981Z,857.80
2018-05-08T01:32:00.908Z,827.30
2018-05-08T01:33:00.952Z,923.10
2018-05-08T01:34:01.013Z,860.10
2018-05-08T01:35:01.071Z,826.50
2018-05-08T01:36:01.199Z,999.90
2018-05-08T01:37:01.162Z,818.30
2018-05-08T01:38:01.183Z,849.80
2018-05-08T01:39:01.241Z,833.30
2018-05-08T01:40:01.286Z,871.00
2018-05-08T01:41:01.431Z,927.30
2018-05-08T01:42:01.366Z,803.60
2018-05-08T01:43:01.436Z,994.20
2018-05-08T01:44:01.463Z,946.70
2018-05-08T01:45:01.516Z,886.60
2018-05-08T01:46:01.660Z,992.00
2018-05-08T01:47:01.605Z,767.00
2018-05-08T01:48:01.652Z,876.30
2018-05-08T01:49:01.690Z,896.90
2018-05-08T01:50:01.742Z,797.60
2018-05-08T01:51:01.890Z,904.30
2018-05-08T01:52:01.842Z,902.30
2018-05-08T01:53:01.867Z,932.30
2018-05-08T01:54:01.921Z,986.20
2018-05-08T01:55:01.978Z,807.20
2018-05-08T01:56:02.127Z,859.20
2018-05-08T01:57:02.175Z,896.60
2018-05-08T01:58:02.096Z,869.60
2018-05-08T01:59:02.139Z,912.90
2018-05-08T02:00:02.185Z,997.90
2018-05-08T02:01:02.250Z,878.90
2018-05-08T02:02:02.388Z,839.70
2018-05-08T02:03:02.440Z,979.90
2018-05-08T02:04:02.389Z,948.50
2018-05-08T02:05:02.419Z,999.90
2018-05-08T02:06:02.466Z,833.20
2018-05-08T02:07:02.515Z,900.70
2018-05-08T02:08:02.649Z,860.10
2018-05-08T02:09:02.714Z,881.90
2018-05-08T02:10:02.647Z,960.40
2018-05-08T02:11:02.687Z,895.90
2018-05-08T02:12:02.729Z,864.50
2018-05-08T02:13:02.786Z,928.30
2018-05-08T02:14:02.923Z,808.40
2018-05-08T02:15:02.966Z,860.00
2018-05-08T02:16:02.911Z,872.30
2018-05-08T02:17:02.964Z,829.80
2018-05-08T02:18:03.023Z,833.20
2018-05-08T02:19:03.053Z,847.30
2018-05-08T02:20:03.202Z,885.70
2018-05-08T02:21:03.160Z,856.30
2018-05-08T02:22:03.186Z,770.90
2018-05-08T02:23:03.235Z,869.90
2018-05-08T02:24:03.278Z,853.00
2018-05-08T02:25:03.443Z,809.30
2018-05-08T02:26:03.367Z,844.80
2018-05-08T02:27:03.412Z,861.20
2018-05-08T02:28:03.471Z,862.70
2018-05-08T02:29:03.519Z,963.60
2018-05-08T02:30:03.556Z,870.10
2018-05-08T02:31:03.699Z,827.80
2018-05-08T02:32:03.644Z,849.60
2018-05-08T02:33:03.694Z,980.90
2018-05-08T02:34:03.759Z,817.30
2018-05-08T02:35:03.778Z,917.80
2018-05-08T02:36:03.943Z,714.20
2018-05-08T02:37:03.973Z,782.60
2018-05-08T02:38:03.928Z,874.50
2018-05-08T02:39:03.979Z,962.10
2018-05-08T02:40:04.019Z,862.90
2018-05-08T02:41:04.066Z,891.80
2018-05-08T02:42:04.218Z,926.30
2018-05-08T02:43:04.155Z,862.30
2018-05-08T02:44:04.203Z,852.00
2018-05-08T02:45:04.246Z,988.70
2018-05-08T02:46:04.299Z,747.20
2018-05-08T02:47:04.437Z,843.30
2018-05-08T02:48:04.373Z,900.00
2018-05-08T02:49:04.428Z,753.60
2018-05-08T02:50:04.487Z,953.60
2018-05-08T02:51:04.507Z,847.40
2018-05-08T02:52:04.652Z,767.40
2018-05-08T02:53:04.698Z,821.70
2018-05-08T02:54:04.645Z,861.50
2018-05-08T02:55:04.688Z,909.50
2018-05-08T02:56:04.747Z,846.30
2018-05-08T02:57:04.792Z,998.60
2018-05-08T02:58:04.938Z,961.70
2018-05-08T02:59:04.869Z,832.40
2018-05-08T03:00:04.936Z,793.00
2018-05-08T03:01:04.987Z,879.30
2018-05-08T03:02:05.023Z,996.90
2018-05-08T03:03:05.171Z,974.60
2018-05-08T03:04:05.112Z,825.50
2018-05-08T03:05:05.155Z,816.40
2018-05-08T03:06:05.202Z,806.90
2018-05-08T03:07:05.246Z,795.00
2018-05-08T03:08:05.391Z,906.40
2018-05-08T03:09:05.333Z,941.60
2018-05-08T03:10:05.372Z,870.40
2018-05-08T03:11:05.432Z,838.70
2018-05-08T03:12:05.460Z,859.20
2018-05-08T03:13:05.605Z,763.90
2018-05-08T03:14:05.649Z,797.60
2018-05-08T03:15:05.606Z,791.80
2018-05-08T03:16:05.644Z,726.80
2018-05-08T03:17:05.703Z,768.10
2018-05-08T03:18:05.740Z,781.00
2018-05-08T03:19:05.893Z,719.90
2018-05-08T03:20:05.933Z,714.40
2018-05-08T03:21:05.863Z,721.60
2018-05-08T03:22:05.921Z,740.20
2018-05-08T03:23:05.956Z,728.30
2018-05-08T03:24:06.021Z,873.80
2018-05-08T03:25:06.157Z,776.20
2018-05-08T03:26:06.103Z,803.30
2018-05-08T03:27:06.136Z,762.80
2018-05-08T03:28:06.193Z,758.80
2018-05-08T03:29:06.240Z,802.30
2018-05-08T03:30:06.385Z,803.70
2018-05-08T03:31:06.321Z,735.20
2018-05-08T03:32:06.363Z,745.50
2018-05-08T03:33:06.409Z,743.00
2018-05-08T03:34:06.466Z,816.80
2018-05-08T03:35:06.615Z,747.70
2018-05-08T03:36:06.675Z,817.70
2018-05-08T03:37:06.599Z,845.40
2018-05-08T03:38:06.651Z,789.70
2018-05-08T03:39:06.700Z,858.00
2018-05-08T03:40:06.730Z,750.90
2018-05-08T03:41:06.880Z,813.80
2018-05-08T03:42:06.930Z,746.10
2018-05-08T03:43:06.877Z,864.00
2018-05-08T03:44:06.917Z,709.20
2018-05-08T03:45:06.972Z,856.30
2018-05-08T03:46:07.018Z,725.70
2018-05-08T03:47:07.163Z,948.70
2018-05-08T03:48:07.099Z,796.10
2018-05-08T03:49:07.155Z,656.30
2018-05-08T03:50:07.200Z,709.60
2018-05-08T03:51:07.234Z,951.60
2018-05-08T03:52:07.274Z,750.90
2018-05-08T03:53:07.430Z,794.50
2018-05-08T03:54:07.461Z,765.30
2018-05-08T03:55:07.406Z,750.40
2018-05-08T03:56:07.455Z,765.00
2018-05-08T03:57:07.497Z,775.80
2018-05-08T03:58:07.556Z,787.90
2018-05-08T03:59:07.691Z,710.40
2018-05-08T04:00:07.638Z,795.70
2018-05-08T04:01:07.681Z,726.00
2018-05-08T04:02:07.724Z,764.30
2018-05-08T04:03:07.774Z,735.10
2018-05-08T04:04:07.929Z,711.10
2018-05-08T04:05:07.960Z,733.80
2018-05-08T04:06:07.923Z,731.80
2018-05-08T04:07:07.962Z,757.00
2018-05-08T04:08:07.998Z,799.90
2018-05-08T04:09:08.039Z,866.50
2018-05-08T04:10:08.199Z,778.20
2018-05-08T04:11:08.245Z,751.90
2018-05-08T04:12:08.184Z,709.30
2018-05-08T04:13:08.231Z,736.80
2018-05-08T04:14:08.287Z,717.70
2018-05-08T04:15:08.400Z,831.00
2018-05-08T04:16:08.469Z,714.20
2018-05-08T04:17:08.501Z,841.10
2018-05-08T04:18:08.448Z,713.20
2018-05-08T04:19:08.492Z,761.30
2018-05-08T04:20:08.549Z,684.40
2018-05-08T04:21:08.583Z,728.50
2018-05-08T04:22:08.740Z,753.10
2018-05-08T04:23:08.787Z,906.20
2018-05-08T04:24:08.730Z,732.10
2018-05-08T04:25:08.776Z,754.60
2018-05-08T04:26:08.816Z,771.20
2018-05-08T04:27:08.881Z,925.50
2018-05-08T04:28:09.011Z,708.10
2018-05-08T04:29:08.954Z,695.90
2018-05-08T04:30:09.056Z,669.80
2018-05-08T04:31:09.044Z,702.20
2018-05-08T04:32:09.096Z,645.00
2018-05-08T04:33:09.241Z,769.70
2018-05-08T04:34:09.176Z,822.00
2018-05-08T04:35:09.236Z,648.30
2018-05-08T04:36:09.264Z,673.60
2018-05-08T04:37:09.313Z,632.00
2018-05-08T04:38:09.447Z,698.20
2018-05-08T04:39:09.412Z,621.10
2018-05-08T04:40:09.436Z,669.80
2018-05-08T04:41:09.488Z,658.40
2018-05-08T04:42:09.545Z,764.40
2018-05-08T04:43:09.679Z,670.00
2018-05-08T04:44:09.730Z,610.80
2018-05-08T04:45:09.668Z,634.90
2018-05-08T04:46:09.707Z,588.40
2018-05-08T04:47:09.774Z,648.60
2018-05-08T04:48:09.813Z,776.10
2018-05-08T04:49:09.950Z,678.30
2018-05-08T04:50:09.997Z,704.50
2018-05-08T04:51:09.932Z,776.70
2018-05-08T04:52:09.989Z,756.80
2018-05-08T04:53:10.031Z,994.70
2018-05-08T04:54:10.064Z,697.20
2018-05-08T04:55:10.221Z,713.80
2018-05-08T04:56:10.168Z,685.60
2018-05-08T04:57:10.199Z,697.60
2018-05-08T04:58:10.242Z,750.00
2018-05-08T04:59:10.304Z,654.40
2018-05-08T05:00:10.438Z,664.10
2018-05-08T05:01:10.395Z,641.90
2018-05-08T05:02:10.516Z,741.60
2018-05-08T05:03:10.465Z,665.60
2018-05-08T05:04:10.518Z,666.10
2018-05-08T05:05:10.659Z,639.80
2018-05-08T05:06:10.714Z,696.90
2018-05-08T05:07:10.645Z,663.10
2018-05-08T05:08:10.704Z,687.00
2018-05-08T05:09:10.746Z,670.40
2018-05-08T05:10:10.779Z,670.70
2018-05-08T05:11:10.955Z,629.90
2018-05-08T05:12:10.881Z,724.80
2018-05-08T05:13:10.924Z,782.40
2018-05-08T05:14:10.969Z,678.70
2018-05-08T05:15:11.017Z,688.20
2018-05-08T05:16:11.147Z,665.90
2018-05-08T05:17:11.103Z,673.40
2018-05-08T05:18:11.137Z,668.70
2018-05-08T05:19:11.194Z,685.00
2018-05-08T05:20:11.237Z,656.20
2018-05-08T05:21:11.371Z,703.90
2018-05-08T05:22:11.331Z,606.60
2018-05-08T05:23:11.377Z,568.30
2018-05-08T05:24:11.403Z,578.60
2018-05-08T05:25:11.459Z,778.70
2018-05-08T05:26:11.603Z,658.60
2018-05-08T05:27:11.547Z,632.90
2018-05-08T05:28:11.595Z,635.80
2018-05-08T05:29:11.644Z,609.50
2018-05-08T05:30:11.677Z,648.80
2018-05-08T05:31:11.816Z,564.90
2018-05-08T05:32:11.863Z,655.80
2018-05-08T05:33:11.804Z,672.30
2018-05-08T05:34:11.876Z,608.60
2018-05-08T05:35:11.904Z,625.20
2018-05-08T05:36:11.964Z,624.90
2018-05-08T05:37:12.082Z,667.80
2018-05-08T05:38:12.145Z,640.70
2018-05-08T05:39:12.071Z,598.30
2018-05-08T05:40:12.135Z,625.40
2018-05-08T05:41:12.167Z,627.30
2018-05-08T05:42:12.217Z,608.60
2018-05-08T05:43:12.362Z,754.90
2018-05-08T05:44:12.300Z,719.90
2018-05-08T05:45:12.337Z,575.50
2018-05-08T05:46:12.397Z,629.80
2018-05-08T05:47:12.427Z,618.70
2018-05-08T05:48:12.590Z,614.40
2018-05-08T05:49:12.528Z,592.20
2018-05-08T05:50:12.560Z,629.00
2018-05-08T05:51:12.603Z,685.30
2018-05-08T05:52:12.668Z,624.00
2018-05-08T05:53:12.822Z,650.80
2018-05-08T05:54:12.752Z,613.70
2018-05-08T05:55:12.783Z,674.30
2018-05-08T05:56:12.836Z,674.30
2018-05-08T05:57:12.872Z,626.40
2018-05-08T05:58:13.016Z,547.50
2018-05-08T05:59:13.071Z,620.80
2018-05-08T06:00:13.015Z,593.10
2018-05-08T06:01:13.076Z,639.60
2018-05-08T06:02:13.098Z,591.70
2018-05-08T06:03:13.148Z,676.90
2018-05-08T06:04:13.302Z,613.90
2018-05-08T06:05:13.324Z,629.20
2018-05-08T06:06:13.276Z,648.20
2018-05-08T06:07:13.330Z,574.70
2018-05-08T06:08:13.377Z,600.00
2018-05-08T06:09:13.412Z,603.30
2018-05-08T06:10:13.547Z,599.70
2018-05-08T06:11:13.498Z,538.30
2018-05-08T06:12:13.534Z,581.60
2018-05-08T06:13:13.578Z,540.70
2018-05-08T06:14:13.623Z,539.00
2018-05-08T06:15:13.880Z,671.50
2018-05-08T06:16:13.717Z,618.10
2018-05-08T06:17:13.782Z,545.50
2018-05-08T06:18:13.802Z,625.90
2018-05-08T06:19:13.857Z,569.60
2018-05-08T06:20:13.989Z,571.00
2018-05-08T06:21:14.044Z,568.90
2018-05-08T06:22:13.986Z,537.10
2018-05-08T06:23:14.029Z,531.20
2018-05-08T06:24:14.076Z,581.50
2018-05-08T06:25:14.110Z,533.70
2018-05-08T06:26:14.372Z,641.70
2018-05-08T06:27:14.548Z,583.90
2018-05-08T06:28:14.254Z,600.80
2018-05-08T06:29:14.293Z,574.60
2018-05-08T06:30:14.331Z,643.00
2018-05-08T06:31:14.387Z,561.20
2018-05-08T06:32:14.522Z,612.20
2018-05-08T06:33:14.725Z,593.60
2018-05-08T06:34:14.508Z,602.90
2018-05-08T06:35:14.552Z,733.10
2018-05-08T06:36:14.610Z,641.10
2018-05-08T06:37:14.660Z,602.10
2018-05-08T06:38:14.935Z,628.40
2018-05-08T06:39:14.832Z,712.40
2018-05-08T06:40:14.781Z,573.50
2018-05-08T06:41:14.835Z,621.90
2018-05-08T06:42:14.861Z,660.30
2018-05-08T06:43:14.912Z,603.80
2018-05-08T06:44:15.079Z,651.20
2018-05-08T06:45:15.115Z,654.20
2018-05-08T06:46:15.055Z,637.80
2018-05-08T06:47:15.103Z,695.90
2018-05-08T06:48:15.176Z,657.20
2018-05-08T06:49:15.188Z,585.80
2018-05-08T06:50:15.320Z,596.90
2018-05-08T06:51:15.360Z,595.70
2018-05-08T06:52:15.317Z,632.60
2018-05-08T06:53:15.355Z,592.10
2018-05-08T06:54:15.391Z,569.30
2018-05-08T06:55:15.434Z,752.30
2018-05-08T06:56:15.592Z,671.10
2018-05-08T06:57:15.630Z,615.60
2018-05-08T06:58:15.573Z,607.70
2018-05-08T06:59:15.612Z,612.10
2018-05-08T07:00:15.671Z,625.00
2018-05-08T07:01:15.700Z,628.60
2018-05-08T07:02:15.866Z,599.90
2018-05-08T07:03:15.903Z,609.90
2018-05-08T07:04:15.852Z,644.40
2018-05-08T07:05:15.883Z,677.20
2018-05-08T07:06:15.923Z,666.60
2018-05-08T07:07:15.968Z,570.70
2018-05-08T07:08:16.124Z,637.00
2018-05-08T07:09:16.262Z,590.50
2018-05-08T07:10:16.103Z,755.00
2018-05-08T07:11:16.156Z,815.70
2018-05-08T07:12:16.207Z,643.20
2018-05-08T07:13:16.240Z,652.50
2018-05-08T07:14:16.396Z,708.20
2018-05-08T07:15:16.320Z,575.10
2018-05-08T07:16:16.524Z,678.70
2018-05-08T07:17:16.421Z,606.40
2018-05-08T07:18:16.458Z,623.10
2018-05-08T07:19:16.609Z,694.20
2018-05-08T07:20:16.547Z,677.40
2018-05-08T07:21:16.602Z,659.00
2018-05-08T07:22:16.649Z,693.10
2018-05-08T07:23:16.685Z,674.50
2018-05-08T07:24:16.818Z,605.40
2018-05-08T07:25:16.771Z,668.50
2018-05-08T07:26:16.817Z,636.80
2018-05-08T07:27:16.878Z,625.10
2018-05-08T07:28:16.910Z,630.10
2018-05-08T07:29:17.066Z,651.00
2018-05-08T07:30:16.981Z,620.30
2018-05-08T07:31:17.028Z,667.40
2018-05-08T07:32:17.080Z,626.90
2018-05-08T07:33:17.113Z,617.10
2018-05-08T07:34:17.269Z,624.00
2018-05-08T07:35:17.207Z,632.70
2018-05-08T07:36:17.266Z,630.00
2018-05-08T07:37:17.309Z,633.20
2018-05-08T07:38:17.427Z,679.90
2018-05-08T07:39:17.588Z,639.20
2018-05-08T07:40:17.585Z,655.60
2018-05-08T07:41:17.480Z,662.70
2018-05-08T07:42:17.510Z,652.60
2018-05-08T07:43:17.555Z,646.90
2018-05-08T07:44:17.616Z,585.80
2018-05-08T07:45:17.757Z,629.40
2018-05-08T07:46:17.787Z,625.00
2018-05-08T07:47:17.747Z,646.10
2018-05-08T07:48:17.787Z,729.70
2018-05-08T07:49:17.827Z,651.90
2018-05-08T07:50:17.875Z,593.30
2018-05-08T07:51:18.019Z,584.00
2018-05-08T07:52:18.072Z,619.60
2018-05-08T07:53:18.006Z,713.20
2018-05-08T07:54:18.052Z,619.80
2018-05-08T07:55:18.103Z,601.90
2018-05-08T07:56:18.141Z,628.90
2018-05-08T07:57:18.297Z,999.90
2018-05-08T07:58:18.222Z,624.70
2018-05-08T07:59:18.312Z,642.70
2018-05-08T08:00:18.316Z,677.40
2018-05-08T08:01:18.347Z,721.20
2018-05-08T08:02:18.493Z,683.70
2018-05-08T08:03:18.540Z,680.70
2018-05-08T08:04:18.499Z,607.10
2018-05-08T08:05:18.523Z,777.10
2018-05-08T08:06:18.574Z,655.40
2018-05-08T08:07:18.728Z,659.40
2018-05-08T08:08:18.770Z,684.20
2018-05-08T08:09:18.719Z,647.80
2018-05-08T08:10:18.744Z,643.30
2018-05-08T08:11:18.787Z,674.60
2018-05-08T08:12:18.872Z,709.30
2018-05-08T08:13:18.988Z,874.80
2018-05-08T08:14:18.928Z,669.70
2018-05-08T08:15:18.975Z,693.10
2018-05-08T08:16:19.007Z,659.80
2018-05-08T08:17:19.052Z,572.20
2018-05-08T08:18:19.196Z,718.20
2018-05-08T08:19:19.266Z,662.40
2018-05-08T08:20:19.206Z,627.80
2018-05-08T08:21:19.239Z,663.50
2018-05-08T08:22:19.276Z,666.10
2018-05-08T08:23:19.329Z,701.10
2018-05-08T08:24:19.472Z,646.40
2018-05-08T08:25:19.512Z,776.90
2018-05-08T08:26:19.461Z,665.20
2018-05-08T08:27:19.510Z,709.10
2018-05-08T08:28:19.549Z,647.80
2018-05-08T08:29:19.581Z,694.20
2018-05-08T08:30:19.737Z,674.40
2018-05-08T08:31:19.790Z,713.90
2018-05-08T08:32:19.721Z,722.10
2018-05-08T08:33:19.769Z,739.10
2018-05-08T08:34:19.813Z,755.60
2018-05-08T08:35:19.858Z,812.20
2018-05-08T08:36:20.009Z,710.90
2018-05-08T08:37:20.035Z,702.50
2018-05-08T08:38:19.980Z,814.90
2018-05-08T08:39:20.037Z,825.30
2018-05-08T08:40:20.095Z,745.70
2018-05-08T08:41:20.125Z,803.00
2018-05-08T08:42:20.258Z,885.50
2018-05-08T08:43:20.311Z,730.80
2018-05-08T08:44:20.255Z,736.60
2018-05-08T08:45:20.319Z,807.50
2018-05-08T08:46:20.335Z,713.80
2018-05-08T08:47:20.380Z,722.50
2018-05-08T08:48:20.550Z,854.90
2018-05-08T08:49:20.569Z,658.20
2018-05-08T08:50:20.514Z,692.50
2018-05-08T08:51:20.570Z,795.20
2018-05-08T08:52:20.637Z,741.10
2018-05-08T08:53:20.656Z,756.50
2018-05-08T08:54:20.790Z,771.00
2018-05-08T08:55:20.745Z,834.60
2018-05-08T08:56:20.778Z,790.10
2018-05-08T08:57:20.829Z,754.80
2018-05-08T08:58:20.875Z,807.20
2018-05-08T08:59:21.017Z,803.00
2018-05-08T09:00:20.961Z,723.40
2018-05-08T09:01:21.012Z,726.00
2018-05-08T09:02:21.054Z,809.00
2018-05-08T09:03:21.096Z,726.30
2018-05-08T09:04:21.250Z,686.40
2018-05-08T09:05:21.187Z,669.00
2018-05-08T09:06:21.238Z,859.30
2018-05-08T09:07:21.267Z,753.50
2018-05-08T09:08:21.324Z,870.00
2018-05-08T09:09:21.465Z,773.60
2018-05-08T09:10:21.579Z,752.20
2018-05-08T09:11:21.540Z,880.40
2018-05-08T09:12:21.501Z,748.40
2018-05-08T09:13:21.531Z,769.30
2018-05-08T09:14:21.586Z,809.80
2018-05-08T09:15:21.625Z,873.90
2018-05-08T09:16:21.671Z,783.20
2018-05-08T09:17:21.714Z,770.20
2018-05-08T09:18:21.770Z,805.80
2018-05-08T09:19:21.814Z,689.60
2018-05-08T09:20:21.940Z,839.40
2018-05-08T09:21:21.904Z,707.60
2018-05-08T09:22:21.941Z,724.60
2018-05-08T09:23:21.989Z,828.60
2018-05-08T09:24:22.031Z,915.90
2018-05-08T09:25:22.168Z,736.50
2018-05-08T09:26:22.129Z,720.50
2018-05-08T09:27:22.267Z,814.60
2018-05-08T09:28:22.206Z,730.40
2018-05-08T09:29:22.250Z,726.60
2018-05-08T09:30:22.398Z,816.00
2018-05-08T09:31:22.340Z,999.90
2018-05-08T09:32:22.380Z,744.10
2018-05-08T09:33:22.431Z,872.00
2018-05-08T09:34:22.470Z,857.40
2018-05-08T09:35:22.631Z,794.40
2018-05-08T09:36:22.657Z,708.60
2018-05-08T09:37:22.593Z,801.10
2018-05-08T09:38:22.649Z,867.10
2018-05-08T09:39:22.689Z,795.00
2018-05-08T09:40:22.744Z,759.00
2018-05-08T09:41:22.896Z,734.80
2018-05-08T09:42:22.827Z,739.10
2018-05-08T09:43:22.878Z,864.00
2018-05-08T09:44:22.905Z,765.60
2018-05-08T09:45:22.947Z,848.70
2018-05-08T09:46:23.094Z,797.20
2018-05-08T09:47:23.039Z,923.20
2018-05-08T09:48:23.084Z,703.40
2018-05-08T09:49:23.139Z,829.60
2018-05-08T09:50:23.172Z,836.50
2018-05-08T09:51:23.336Z,739.30
2018-05-08T09:52:23.381Z,939.60
2018-05-08T09:53:23.305Z,913.60
2018-05-08T09:54:23.363Z,803.20
2018-05-08T09:55:23.396Z,874.80
2018-05-08T09:56:23.458Z,735.50
2018-05-08T09:57:23.594Z,882.20
2018-05-08T09:58:23.630Z,784.50
2018-05-08T09:59:23.584Z,826.90
2018-05-08T10:00:23.620Z,659.20
2018-05-08T10:01:23.673Z,774.80
2018-05-08T10:02:23.720Z,957.60
2018-05-08T10:03:23.853Z,893.00
2018-05-08T10:04:23.814Z,999.90
2018-05-08T10:05:23.853Z,888.40
2018-05-08T10:06:23.898Z,875.10
2018-05-08T10:07:23.942Z,819.50
2018-05-08T10:08:24.084Z,825.70
2018-05-08T10:09:24.032Z,823.50
2018-05-08T10:10:24.076Z,717.60
2018-05-08T10:11:24.109Z,947.40
2018-05-08T10:12:24.173Z,798.40
2018-05-08T10:13:24.317Z,999.90
2018-05-08T10:14:24.355Z,717.10
2018-05-08T10:15:24.301Z,738.20
2018-05-08T10:16:24.351Z,814.10
2018-05-08T10:17:24.387Z,945.00
2018-05-08T10:18:24.421Z,883.30
2018-05-08T10:19:24.592Z,999.90
2018-05-08T10:20:24.517Z,753.50
2018-05-08T10:21:24.601Z,708.70
2018-05-08T10:22:24.606Z,756.80
2018-05-08T10:23:24.644Z,776.30
2018-05-08T10:24:24.793Z,980.00
2018-05-08T10:25:24.747Z,973.60
2018-05-08T10:26:24.797Z,981.90
2018-05-08T10:27:24.837Z,832.90
2018-05-08T10:28:24.869Z,782.30
2018-05-08T10:29:25.025Z,684.00
2018-05-08T10:30:25.064Z,715.70
2018-05-08T10:31:25.003Z,754.40
2018-05-08T10:32:25.058Z,861.40
2018-05-08T10:33:25.109Z,966.20
2018-05-08T10:34:25.154Z,673.60
2018-05-08T10:35:25.285Z,892.50
2018-05-08T10:36:25.344Z,776.50
2018-05-08T10:37:25.275Z,849.60
2018-05-08T10:38:25.332Z,774.70
2018-05-08T10:39:25.382Z,872.40
2018-05-08T10:40:25.411Z,646.50
2018-05-08T10:41:25.566Z,753.80
2018-05-08T10:42:25.515Z,787.10
2018-05-08T10:43:25.571Z,681.80
2018-05-08T10:44:25.601Z,900.60
2018-05-08T10:45:25.642Z,805.50
2018-05-08T10:46:25.804Z,682.70
2018-05-08T10:47:25.744Z,801.50
2018-05-08T10:48:25.785Z,688.90
2018-05-08T10:49:25.844Z,928.00
2018-05-08T10:50:25.871Z,768.60
2018-05-08T10:51:26.031Z,787.00
2018-05-08T10:52:25.976Z,824.80
2018-05-08T10:53:26.024Z,697.80
2018-05-08T10:54:26.076Z,728.70
2018-05-08T10:55:26.102Z,726.40
2018-05-08T10:56:26.261Z,794.20
2018-05-08T10:57:26.206Z,743.30
2018-05-08T10:58:26.240Z,882.00
2018-05-08T10:59:26.288Z,957.40
2018-05-08T11:00:26.333Z,699.10
2018-05-08T11:01:26.549Z,999.90
2018-05-08T11:02:26.544Z,635.40
2018-05-08T11:03:26.485Z,881.80
2018-05-08T11:04:26.529Z,821.70
2018-05-08T11:05:26.583Z,765.90
2018-05-08T11:06:26.621Z,709.30
2018-05-08T11:07:26.756Z,764.70
2018-05-08T11:08:26.802Z,720.30
2018-05-08T11:09:26.748Z,811.60
2018-05-08T11:10:26.813Z,657.60
2018-05-08T11:11:26.854Z,716.30
2018-05-08T11:12:26.967Z,760.00
2018-05-08T11:13:27.045Z,747.90
2018-05-08T11:14:26.991Z,686.80
2018-05-08T11:15:27.038Z,782.00
2018-05-08T11:16:27.080Z,701.20
2018-05-08T11:17:27.132Z,723.80
2018-05-08T11:18:27.287Z,734.50
2018-05-08T11:19:27.220Z,744.90
2018-05-08T11:20:27.281Z,812.20
2018-05-08T11:21:27.309Z,735.70
2018-05-08T11:22:27.371Z,999.90
2018-05-08T11:23:27.520Z,838.20
2018-05-08T11:24:27.464Z,737.90
2018-05-08T11:25:27.507Z,827.00
2018-05-08T11:26:27.597Z,749.20
2018-05-08T11:27:27.607Z,813.80
2018-05-08T11:28:27.757Z,705.60
2018-05-08T11:29:27.698Z,802.90
2018-05-08T11:30:27.758Z,938.00
2018-05-08T11:31:27.794Z,810.90
2018-05-08T11:32:27.854Z,768.30
2018-05-08T11:33:27.895Z,732.60
2018-05-08T11:34:28.039Z,807.70
2018-05-08T11:35:28.001Z,818.90
2018-05-08T11:36:28.030Z,841.60
2018-05-08T11:37:28.088Z,863.20
2018-05-08T11:38:28.138Z,847.80
2018-05-08T11:39:28.288Z,769.10
2018-05-08T11:40:28.343Z,926.80
2018-05-08T11:41:28.271Z,813.80
2018-05-08T11:42:28.321Z,738.90
2018-05-08T11:43:28.386Z,893.40
2018-05-08T11:44:28.426Z,747.80
2018-05-08T11:45:28.564Z,801.90
2018-05-08T11:46:28.625Z,703.00
2018-05-08T11:47:28.572Z,798.70
2018-05-08T11:48:28.609Z,796.70
2018-05-08T11:49:28.658Z,742.30
2018-05-08T11:50:28.719Z,725.30
2018-05-08T11:51:28.866Z,917.10
2018-05-08T11:52:28.904Z,758.40
2018-05-08T11:53:28.849Z,787.30
2018-05-08T11:54:28.926Z,756.30
2018-05-08T11:55:28.960Z,897.00
2018-05-08T11:56:29.023Z,988.70
2018-05-08T11:57:29.156Z,999.90
2018-05-08T11:58:29.192Z,999.90
2018-05-08T11:59:29.149Z,945.70
2018-05-08T12:00:29.202Z,783.70
2018-05-08T12:01:29.236Z,764.70
2018-05-08T12:02:29.301Z,834.40
2018-05-08T12:03:29.454Z,826.90
2018-05-08T12:04:29.482Z,742.80
2018-05-08T12:05:29.443Z,771.80
2018-05-08T12:06:29.487Z,882.00
2018-05-08T12:07:29.533Z,900.20
2018-05-08T12:08:29.582Z,716.00
2018-05-08T12:09:29.726Z,807.50
2018-05-08T12:10:29.785Z,725.70
2018-05-08T12:11:29.722Z,907.80
2018-05-08T12:12:29.782Z,721.40
2018-05-08T12:13:29.817Z,867.00
2018-05-08T12:14:29.909Z,889.40
2018-05-08T12:15:30.015Z,786.30
2018-05-08T12:16:29.967Z,931.70
2018-05-08T12:17:30.013Z,751.80
2018-05-08T12:18:30.080Z,999.90
2018-05-08T12:19:30.119Z,812.30
2018-05-08T12:20:30.257Z,802.80
2018-05-08T12:21:30.217Z,766.80
2018-05-08T12:22:30.255Z,737.00
2018-05-08T12:23:30.317Z,779.00
2018-05-08T12:24:30.376Z,931.60
2018-05-08T12:25:30.595Z,857.90
2018-05-08T12:26:30.455Z,769.60
2018-05-08T12:27:30.511Z,718.00
2018-05-08T12:28:30.647Z,699.20
2018-05-08T12:29:30.685Z,878.30